createdAt,value
2022-07-30T00:03:53.810Z,25.41
2022-07-30T00:08:51.394Z,25.56
2022-07-30T00:13:49.703Z,25.63
2022-07-30T00:18:48.041Z,26.11
2022-07-30T00:24:01.242Z,25.79
2022-07-30T00:29:09.437Z,25.62
2022-07-30T00:34:09.387Z,25.29
2022-07-30T00:39:10.063Z,25.20
2022-07-30T00:44:11.032Z,25.27
2022-07-30T00:49:12.666Z,25.07
2022-07-30T00:54:15.722Z,25.07
2022-07-30T00:59:13.968Z,25.19
2022-07-30T01:04:12.421Z,24.68
2022-07-30T01:09:14.416Z,24.69
2022-07-30T01:14:16.003Z,24.72
2022-07-30T01:19:46.023Z,24.81
2022-07-30T01:24:58.915Z,24.40
2022-07-30T01:29:59.082Z,24.59
2022-07-30T01:35:01.769Z,24.33
2022-07-30T01:40:00.542Z,24.16
2022-07-30T01:45:02.641Z,23.96
2022-07-30T01:50:03.656Z,23.46
2022-07-30T01:55:20.793Z,23.69
2022-07-30T02:00:23.117Z,23.59
2022-07-30T02:05:21.523Z,23.39
2022-07-30T02:10:36.600Z,23.64
2022-07-30T02:15:46.839Z,23.48
2022-07-30T02:20:56.649Z,23.56
2022-07-30T02:25:57.126Z,23.35
2022-07-30T02:31:01.273Z,23.45
2022-07-30T02:36:03.605Z,23.45
2022-07-30T02:41:23.205Z,23.32
2022-07-30T02:46:23.733Z,23.32
2022-07-30T02:51:58.059Z,22.76
2022-07-30T02:57:01.225Z,22.80
2022-07-30T03:02:03.610Z,22.87
2022-07-30T03:07:08.560Z,22.70
2022-07-30T03:12:07.286Z,22.75
2022-07-30T03:17:09.394Z,22.67
2022-07-30T03:22:08.677Z,22.49
2022-07-30T03:27:10.502Z,22.67
2022-07-30T03:32:13.556Z,23.22
2022-07-30T03:37:12.159Z,23.17
2022-07-30T03:42:12.816Z,22.60
2022-07-30T03:47:12.917Z,22.54
2022-07-30T03:52:17.626Z,22.38
2022-07-30T03:57:20.510Z,22.30
2022-07-30T04:02:20.874Z,22.37
2022-07-30T04:07:47.884Z,22.69
2022-07-30T04:12:50.826Z,22.93
2022-07-30T04:17:53.439Z,22.81
2022-07-30T04:22:55.440Z,22.45
2022-07-30T04:28:02.854Z,22.66
2022-07-30T04:33:15.666Z,22.49
2022-07-30T04:38:34.202Z,22.64
2022-07-30T04:43:33.997Z,22.75
2022-07-30T04:48:36.150Z,23.01
2022-07-30T04:53:44.960Z,23.09
2022-07-30T04:58:47.346Z,23.00
2022-07-30T05:03:49.808Z,22.99
2022-07-30T05:08:51.520Z,23.31
2022-07-30T05:13:52.400Z,23.23
2022-07-30T05:18:54.303Z,23.39
2022-07-30T05:23:53.908Z,23.64
2022-07-30T05:29:20.070Z,23.73
2022-07-30T05:34:27.190Z,23.93
2022-07-30T05:39:28.559Z,24.08
2022-07-30T05:44:47.356Z,24.49
2022-07-30T05:49:47.363Z,24.53
2022-07-30T05:54:46.680Z,24.73
2022-07-30T06:00:06.340Z,24.80
2022-07-30T06:05:33.188Z,24.87
2022-07-30T06:10:34.179Z,24.97
2022-07-30T06:15:34.903Z,25.43
2022-07-30T06:20:36.241Z,25.64
2022-07-30T06:25:59.670Z,25.46
2022-07-30T06:30:59.523Z,25.73
2022-07-30T06:36:15.581Z,26.03
2022-07-30T06:41:23.021Z,26.32
2022-07-30T06:46:28.691Z,26.64
2022-07-30T06:51:27.389Z,27.02
2022-07-30T06:56:31.972Z,27.24
2022-07-30T07:01:37.894Z,27.65
2022-07-30T07:06:39.557Z,27.73
2022-07-30T07:11:43.819Z,27.95
2022-07-30T07:16:50.803Z,27.84
2022-07-30T07:22:27.554Z,28.30
2022-07-30T07:27:27.497Z,28.52
2022-07-30T07:32:31.702Z,28.59
2022-07-30T07:37:30.508Z,28.65
2022-07-30T07:42:29.081Z,28.89
2022-07-30T07:47:28.990Z,29.17
2022-07-30T07:52:41.465Z,29.44
2022-07-30T07:57:40.714Z,29.56
2022-07-30T08:02:44.149Z,29.21
2022-07-30T08:07:43.099Z,29.57
2022-07-30T08:12:41.459Z,30.21
2022-07-30T08:17:45.750Z,30.32
2022-07-30T08:22:55.723Z,30.35
2022-07-30T08:27:57.232Z,30.38
2022-07-30T08:32:56.442Z,30.31
2022-07-30T08:37:55.755Z,30.16
2022-07-30T08:42:55.632Z,30.49
2022-07-30T08:47:55.140Z,30.27
2022-07-30T08:52:59.351Z,30.34
2022-07-30T08:57:57.964Z,30.65
2022-07-30T09:02:57.671Z,30.83
2022-07-30T09:07:59.486Z,30.91
2022-07-30T09:13:00.120Z,30.74
2022-07-30T09:18:04.379Z,31.35
2022-07-30T09:23:07.114Z,31.30
2022-07-30T09:28:34.598Z,31.66
2022-07-30T09:33:47.345Z,31.33
2022-07-30T09:39:07.022Z,31.52
2022-07-30T09:44:38.522Z,31.69
2022-07-30T09:49:37.825Z,31.84
2022-07-30T09:54:53.055Z,31.73
2022-07-30T10:00:23.434Z,31.99
2022-07-30T10:05:51.257Z,32.25
2022-07-30T10:10:52.457Z,32.23
2022-07-30T10:15:51.165Z,32.28
2022-07-30T10:20:53.685Z,32.28
2022-07-30T10:26:13.365Z,32.35
2022-07-30T10:31:48.836Z,32.86
2022-07-30T10:36:57.890Z,33.09
2022-07-30T10:42:08.807Z,33.19
2022-07-30T10:47:09.361Z,32.86
2022-07-30T10:52:08.630Z,33.17
2022-07-30T10:57:23.138Z,32.82
2022-07-30T11:02:37.242Z,33.25
2022-07-30T11:13:06.424Z,33.84
2022-07-30T11:18:13.139Z,33.78
2022-07-30T11:23:19.260Z,34.02
2022-07-30T11:28:42.472Z,33.97
2022-07-30T11:33:41.970Z,34.10
2022-07-30T11:38:53.830Z,33.79
2022-07-30T11:44:31.108Z,34.19
2022-07-30T11:49:36.118Z,34.44
2022-07-30T11:54:34.390Z,34.26
2022-07-30T11:59:58.687Z,34.40
2022-07-30T12:04:57.499Z,34.86
2022-07-30T12:10:27.016Z,35.11
2022-07-30T12:15:42.638Z,35.82
2022-07-30T12:20:41.368Z,35.21
2022-07-30T12:25:47.772Z,35.48
2022-07-30T12:30:52.130Z,35.18
2022-07-30T12:35:59.358Z,35.40
2022-07-30T12:41:04.574Z,35.65
2022-07-30T12:46:05.350Z,36.12
2022-07-30T12:51:12.401Z,36.07
2022-07-30T12:56:19.459Z,36.29
2022-07-30T13:01:18.204Z,36.97
2022-07-30T13:06:20.496Z,38.54
2022-07-30T13:11:24.891Z,40.40
2022-07-30T13:16:24.608Z,41.23
2022-07-30T13:21:23.756Z,40.36
2022-07-30T13:26:28.023Z,41.75
2022-07-30T13:31:27.124Z,40.98
2022-07-30T13:36:44.309Z,42.46
2022-07-30T13:41:43.728Z,43.13
2022-07-30T13:46:50.421Z,43.44
2022-07-30T13:51:52.009Z,43.71
2022-07-30T13:56:53.880Z,42.04
2022-07-30T14:01:54.231Z,43.80
2022-07-30T14:06:57.721Z,43.92
2022-07-30T14:11:56.388Z,43.34
2022-07-30T14:16:55.497Z,42.94
2022-07-30T14:21:54.562Z,40.52
2022-07-30T14:26:58.008Z,41.93
2022-07-30T14:32:00.500Z,41.94
2022-07-30T14:37:02.951Z,42.81
2022-07-30T14:42:02.953Z,41.72
2022-07-30T14:47:04.517Z,41.09
2022-07-30T14:52:05.647Z,40.90
2022-07-30T14:57:07.072Z,40.09
2022-07-30T15:02:10.898Z,39.72
2022-07-30T15:07:14.421Z,38.87
2022-07-30T15:12:26.985Z,38.35
2022-07-30T15:17:31.122Z,38.99
2022-07-30T15:22:34.519Z,39.16
2022-07-30T15:27:34.284Z,38.68
2022-07-30T15:32:39.391Z,38.84
2022-07-30T15:37:42.041Z,38.56
2022-07-30T15:42:43.351Z,38.15
2022-07-30T15:47:41.856Z,37.74
2022-07-30T15:52:41.265Z,37.40
2022-07-30T15:57:40.840Z,36.93
2022-07-30T16:02:39.241Z,36.96
2022-07-30T16:07:39.191Z,36.52
2022-07-30T16:12:40.126Z,36.25
2022-07-30T16:17:38.110Z,36.11
2022-07-30T16:22:36.830Z,35.26
2022-07-30T16:27:35.819Z,34.79
2022-07-30T16:32:41.402Z,34.88
2022-07-30T16:37:40.919Z,34.49
2022-07-30T16:42:40.765Z,34.41
2022-07-30T16:47:42.837Z,34.42
2022-07-30T16:52:42.839Z,34.19
2022-07-30T16:57:45.568Z,33.81
2022-07-30T17:02:45.427Z,33.63
2022-07-30T17:07:44.375Z,33.81
2022-07-30T17:12:42.577Z,33.87
2022-07-30T17:17:50.387Z,33.26
2022-07-30T17:22:50.939Z,32.91
2022-07-30T17:27:50.248Z,32.60
2022-07-30T17:32:51.728Z,32.49
2022-07-30T17:37:53.178Z,32.65
2022-07-30T17:42:52.224Z,32.08
2022-07-30T17:47:54.702Z,31.95
2022-07-30T18:11:49.929Z,31.82
2022-07-30T18:16:48.376Z,31.71
2022-07-30T18:21:47.025Z,31.93
2022-07-30T18:26:48.254Z,31.78
2022-07-30T18:31:48.030Z,31.28
2022-07-30T18:37:12.126Z,31.44
2022-07-30T18:42:16.115Z,31.34
2022-07-30T18:47:14.353Z,31.33
2022-07-30T18:52:12.436Z,31.41
2022-07-30T18:57:19.411Z,31.12
2022-07-30T19:02:33.496Z,30.98
2022-07-30T19:07:48.166Z,30.90
2022-07-30T19:13:22.114Z,30.96
2022-07-30T19:18:22.762Z,30.90
2022-07-30T19:23:22.391Z,30.86
2022-07-30T19:28:21.312Z,30.61
2022-07-30T19:33:20.918Z,30.46
2022-07-30T19:38:21.674Z,30.49
2022-07-30T19:43:25.184Z,30.64
2022-07-30T19:48:29.369Z,30.29
2022-07-30T19:53:34.407Z,30.26
2022-07-30T19:58:46.262Z,30.16
2022-07-30T20:03:49.411Z,30.34
2022-07-30T20:08:49.801Z,30.24
2022-07-30T20:14:16.255Z,29.99
2022-07-30T20:19:22.178Z,29.35
2022-07-30T20:24:21.168Z,28.71
2022-07-30T20:29:27.714Z,28.78
2022-07-30T20:34:27.556Z,28.46
2022-07-30T20:39:25.794Z,28.19
2022-07-30T20:44:25.569Z,28.05
2022-07-30T20:49:29.011Z,27.86
2022-07-30T20:54:35.401Z,27.73
2022-07-30T20:59:40.811Z,28.12
2022-07-30T21:04:52.780Z,28.04
2022-07-30T21:09:57.479Z,28.02
2022-07-30T21:14:58.318Z,27.82
2022-07-30T21:19:57.332Z,28.03
2022-07-30T21:25:08.258Z,28.12
2022-07-30T21:30:07.232Z,27.81
2022-07-30T21:35:08.647Z,27.73
2022-07-30T21:40:10.980Z,27.49
2022-07-30T21:45:09.960Z,27.09
2022-07-30T21:50:10.841Z,27.07
2022-07-30T21:55:13.373Z,26.95
2022-07-30T22:00:23.049Z,26.55
2022-07-30T22:05:38.303Z,26.27
2022-07-30T22:10:52.507Z,26.11
2022-07-30T22:15:59.711Z,26.25
2022-07-30T22:20:57.986Z,26.18
2022-07-30T22:26:00.180Z,26.12
2022-07-30T22:30:59.782Z,26.17
2022-07-30T22:35:59.144Z,26.74
2022-07-30T22:41:07.251Z,26.38
2022-07-30T22:46:14.745Z,26.64
2022-07-30T22:52:19.571Z,26.52
2022-07-30T22:57:03.809Z,26.56
2022-07-30T23:02:03.034Z,26.56
2022-07-30T23:07:00.935Z,26.10
2022-07-30T23:12:05.738Z,25.99
2022-07-30T23:17:06.987Z,25.86
2022-07-30T23:22:12.088Z,25.73
2022-07-30T23:27:10.393Z,25.92
2022-07-30T23:32:08.453Z,25.95
2022-07-30T23:37:10.592Z,26.06
2022-07-30T23:42:12.057Z,25.97
2022-07-30T23:47:11.713Z,25.46
2022-07-30T23:52:10.318Z,25.63
2022-07-30T23:57:09.058Z,25.66
